Time;durP1;ratioP1;P1;durP2;ratioP2;P2;SDS_P1;SDS_P2;PMS_P1;PMS_P2;Temp;Humidity;BMP_temperature;BMP_pressure;BME280_temperature;BME280_humidity;BME280_pressure;Samples;Min_cycle;Max_cycle;Signal;HPM_P1;HPM_P2
2022/08/06 00:00:45;;;;;;;;;;;18.20;63.20;;;;;;5074435;28;19917;-58
2022/08/06 00:03:10;;;;;;;;;;;18.20;63.20;;;;;;5074395;28;19917;-58
2022/08/06 00:05:36;;;;;;;;;;;18.20;63.20;;;;;;5074660;28;19916;-56
2022/08/06 00:08:01;;;;;;;;;;;18.20;63.30;;;;;;5074186;28;20277;-57
2022/08/06 00:10:27;;;;;;;;;;;18.20;63.90;;;;;;5056439;28;19912;-58
2022/08/06 00:12:52;;;;;;;;;;;18.10;64.00;;;;;;5073851;28;19908;-58
2022/08/06 00:15:18;;;;;;;;;;;18.10;64.30;;;;;;5074351;28;19915;-58
2022/08/06 00:17:44;;;;;;;;;;;18.10;64.40;;;;;;5074155;28;20288;-59
2022/08/06 00:20:11;;;;;;;;;;;18.00;64.50;;;;;;5074203;28;19916;-57
2022/08/06 00:22:37;;;;;;;;;;;18.00;64.30;;;;;;5073745;28;19948;-59
2022/08/06 00:25:02;;;;;;;;;;;18.00;64.50;;;;;;5074308;28;19989;-58
2022/08/06 00:27:28;;;;;;;;;;;18.00;64.70;;;;;;5073839;28;19916;-58
2022/08/06 00:29:53;;;;;;;;;;;18.00;64.90;;;;;;5073950;28;19912;-59
2022/08/06 00:32:19;;;;;;;;;;;18.00;64.90;;;;;;5073737;28;20289;-58
2022/08/06 00:34:44;;;;;;;;;;;17.90;65.10;;;;;;5073377;28;19915;-59
2022/08/06 00:37:10;;;;;;;;;;;17.90;65.00;;;;;;5073750;28;19923;-59
2022/08/06 00:39:35;;;;;;;;;;;17.90;65.60;;;;;;5073701;28;19989;-58
2022/08/06 00:42:01;;;;;;;;;;;17.90;65.20;;;;;;5073674;28;19915;-57
2022/08/06 00:44:26;;;;;;;;;;;17.90;65.50;;;;;;5073672;28;20270;-58
2022/08/06 00:46:53;;;;;;;;;;;17.90;65.40;;;;;;5073400;28;19917;-58
2022/08/06 00:49:18;;;;;;;;;;;17.80;65.40;;;;;;5073315;28;20296;-58
2022/08/06 00:51:44;;;;;;;;;;;17.80;65.40;;;;;;5073731;28;19909;-58
2022/08/06 00:54:10;;;;;;;;;;;17.70;65.40;;;;;;5073147;28;19948;-57
2022/08/06 00:56:35;;;;;;;;;;;17.70;65.40;;;;;;5073012;28;20015;-58
2022/08/06 00:59:01;;;;;;;;;;;17.70;65.60;;;;;;5073164;28;20463;-58
2022/08/06 01:01:26;;;;;;;;;;;17.70;65.40;;;;;;5072402;28;19908;-59
2022/08/06 01:03:52;;;;;;;;;;;17.70;65.60;;;;;;5073157;28;19975;-58
2022/08/06 01:06:18;;;;;;;;;;;17.70;65.80;;;;;;5072034;28;19913;-58
2022/08/06 01:08:43;;;;;;;;;;;17.60;65.90;;;;;;5072909;28;19909;-58
2022/08/06 01:11:09;;;;;;;;;;;17.60;65.90;;;;;;5072440;28;20020;-57
2022/08/06 01:13:34;;;;;;;;;;;17.60;65.80;;;;;;5073423;28;19913;-57
2022/08/06 01:16:07;;;;;;;;;;;17.60;66.10;;;;;;5072790;28;19912;-59
2022/08/06 01:18:35;;;;;;;;;;;17.60;66.50;;;;;;5073338;28;19914;-58
2022/08/06 01:21:21;;;;;;;;;;;17.60;66.50;;;;;;5073111;28;19974;-58
2022/08/06 01:24:03;;;;;;;;;;;17.50;66.50;;;;;;5073069;28;19908;-56
2022/08/06 01:26:36;;;;;;;;;;;17.40;66.70;;;;;;5066812;28;19912;-57
2022/08/06 01:29:08;;;;;;;;;;;17.50;67.50;;;;;;5072961;28;19922;-55
2022/08/06 01:31:43;;;;;;;;;;;17.40;66.50;;;;;;5073125;28;19908;-58
2022/08/06 01:34:31;;;;;;;;;;;17.40;66.90;;;;;;5072842;28;20918;-58
2022/08/06 01:37:13;;;;;;;;;;;17.40;66.80;;;;;;5064540;28;19924;-56
2022/08/06 01:39:40;;;;;;;;;;;17.40;67.30;;;;;;5071962;28;20428;-56
2022/08/06 01:42:05;;;;;;;;;;;17.30;67.50;;;;;;5072650;28;19916;-59
2022/08/06 01:44:34;;;;;;;;;;;17.30;67.20;;;;;;5073112;28;19909;-57
2022/08/06 01:47:08;;;;;;;;;;;17.30;67.40;;;;;;5072213;28;20011;-58
2022/08/06 01:49:35;;;;;;;;;;;17.30;67.40;;;;;;5072380;28;19913;-59
2022/08/06 01:52:01;;;;;;;;;;;17.20;67.50;;;;;;5072319;28;19927;-57
2022/08/06 01:54:28;;;;;;;;;;;17.20;67.60;;;;;;5071888;28;19930;-58
2022/08/06 01:56:55;;;;;;;;;;;17.20;67.40;;;;;;5072464;28;19964;-58
2022/08/06 01:59:22;;;;;;;;;;;17.20;68.20;;;;;;5072672;28;20361;-58
2022/08/06 02:01:51;;;;;;;;;;;17.10;68.50;;;;;;5072310;28;20003;-57
2022/08/06 02:04:17;;;;;;;;;;;17.10;68.70;;;;;;5072404;28;19912;-59
2022/08/06 02:06:43;;;;;;;;;;;17.00;68.30;;;;;;5071813;28;20347;-58
2022/08/06 02:09:13;;;;;;;;;;;17.00;68.20;;;;;;5071704;28;19912;-59
2022/08/06 02:11:40;;;;;;;;;;;17.00;68.60;;;;;;5054202;28;19912;-58
2022/08/06 02:14:06;;;;;;;;;;;17.00;68.70;;;;;;5072055;28;19913;-58
2022/08/06 02:16:34;;;;;;;;;;;16.90;68.80;;;;;;5054001;28;19908;-58
2022/08/06 02:19:01;;;;;;;;;;;16.90;69.10;;;;;;5063995;28;19966;-57
2022/08/06 02:21:28;;;;;;;;;;;16.90;69.10;;;;;;5065712;28;20026;-58
2022/08/06 02:23:54;;;;;;;;;;;16.80;69.60;;;;;;5071206;28;20395;-58
2022/08/06 02:26:21;;;;;;;;;;;16.80;69.40;;;;;;5071336;28;19962;-58
2022/08/06 02:28:48;;;;;;;;;;;16.80;69.50;;;;;;5072333;28;19915;-58
2022/08/06 02:31:14;;;;;;;;;;;16.80;69.80;;;;;;5071617;28;20010;-59
2022/08/06 02:33:39;;;;;;;;;;;16.70;69.80;;;;;;5071436;28;20027;-58
2022/08/06 02:36:13;;;;;;;;;;;16.60;69.50;;;;;;5071341;28;19912;-58
2022/08/06 02:38:47;;;;;;;;;;;16.60;69.50;;;;;;5070784;28;19942;-58
2022/08/06 02:41:15;;;;;;;;;;;16.60;69.80;;;;;;5071604;28;19908;-59
2022/08/06 02:43:44;;;;;;;;;;;16.60;69.80;;;;;;5072238;28;20351;-58
2022/08/06 02:46:14;;;;;;;;;;;16.60;69.50;;;;;;5071215;28;19914;-58
2022/08/06 02:48:49;;;;;;;;;;;16.50;69.50;;;;;;5071088;28;19912;-58
2022/08/06 02:51:18;;;;;;;;;;;16.50;69.70;;;;;;5071342;28;19954;-58
2022/08/06 02:53:54;;;;;;;;;;;16.50;69.60;;;;;;5071076;28;19916;-58
2022/08/06 02:56:21;;;;;;;;;;;16.50;69.60;;;;;;5070838;28;19924;-57
2022/08/06 02:58:47;;;;;;;;;;;16.50;69.60;;;;;;5071115;28;19999;-58
2022/08/06 03:01:20;;;;;;;;;;;16.50;69.40;;;;;;5071124;28;19909;-58
2022/08/06 03:03:48;;;;;;;;;;;16.50;69.40;;;;;;5071270;28;19915;-58
2022/08/06 03:06:15;;;;;;;;;;;16.50;69.30;;;;;;5070495;28;19908;-58
2022/08/06 03:08:41;;;;;;;;;;;16.40;69.60;;;;;;5071224;28;20347;-59
2022/08/06 03:11:10;;;;;;;;;;;16.40;69.70;;;;;;5071068;28;20365;-57
2022/08/06 03:13:36;;;;;;;;;;;16.40;69.90;;;;;;5071394;28;19920;-57
2022/08/06 03:16:02;;;;;;;;;;;16.30;69.90;;;;;;5070980;28;20044;-59
2022/08/06 03:18:29;;;;;;;;;;;16.30;70.00;;;;;;5070874;28;19920;-59
2022/08/06 03:20:55;;;;;;;;;;;16.30;69.90;;;;;;5070808;28;20007;-56
2022/08/06 03:23:21;;;;;;;;;;;16.30;70.20;;;;;;5070611;28;19959;-59
2022/08/06 03:25:48;;;;;;;;;;;16.30;70.30;;;;;;5071013;28;19916;-57
2022/08/06 03:28:14;;;;;;;;;;;16.20;70.10;;;;;;5072353;28;19917;-59
2022/08/06 03:30:40;;;;;;;;;;;16.20;70.20;;;;;;5075013;28;19908;-60
2022/08/06 03:33:10;;;;;;;;;;;16.20;70.80;;;;;;5075161;28;19908;-58
2022/08/06 03:35:36;;;;;;;;;;;16.20;70.30;;;;;;5074893;28;19935;-59
2022/08/06 03:38:02;;;;;;;;;;;16.10;70.30;;;;;;5074843;28;19920;-59
2022/08/06 03:40:29;;;;;;;;;;;16.10;70.40;;;;;;5074981;28;19909;-58
2022/08/06 03:42:55;;;;;;;;;;;16.10;70.40;;;;;;5074805;28;19912;-59
2022/08/06 03:45:20;;;;;;;;;;;16.10;70.40;;;;;;5074699;28;20368;-58
2022/08/06 03:47:51;;;;;;;;;;;16.10;70.30;;;;;;5074611;28;20377;-59
2022/08/06 03:50:25;;;;;;;;;;;16.10;70.30;;;;;;5068427;28;20292;-57
2022/08/06 03:53:02;;;;;;;;;;;16.00;70.50;;;;;;5074774;28;20284;-58
2022/08/06 03:55:28;;;;;;;;;;;16.10;71.10;;;;;;5074715;28;19908;-59
2022/08/06 03:57:55;;;;;;;;;;;16.00;70.70;;;;;;5074169;28;19963;-59
2022/08/06 04:00:22;;;;;;;;;;;16.00;70.90;;;;;;5074444;28;19913;-58
2022/08/06 04:02:52;;;;;;;;;;;16.00;70.80;;;;;;5056496;28;19915;-58
2022/08/06 04:05:19;;;;;;;;;;;16.00;70.80;;;;;;5074244;28;19938;-57
2022/08/06 04:07:46;;;;;;;;;;;16.00;70.50;;;;;;5056116;28;20381;-59
2022/08/06 04:10:12;;;;;;;;;;;16.00;70.60;;;;;;5074638;28;19908;-57
2022/08/06 04:12:38;;;;;;;;;;;16.00;70.50;;;;;;5073851;28;20400;-57
2022/08/06 04:15:05;;;;;;;;;;;16.00;70.40;;;;;;5074216;28;19908;-58
2022/08/06 04:17:31;;;;;;;;;;;15.90;70.40;;;;;;5074088;28;19912;-58
2022/08/06 04:19:58;;;;;;;;;;;15.90;70.30;;;;;;5074070;28;19915;-59
2022/08/06 04:22:23;;;;;;;;;;;15.90;70.50;;;;;;5074098;28;19952;-59
2022/08/06 04:24:49;;;;;;;;;;;15.90;70.60;;;;;;5074002;28;20494;-59
2022/08/06 04:27:15;;;;;;;;;;;15.90;70.30;;;;;;5073860;28;20007;-59
2022/08/06 04:29:41;;;;;;;;;;;15.90;70.40;;;;;;5073826;28;20011;-58
2022/08/06 04:32:07;;;;;;;;;;;15.80;70.30;;;;;;5067541;28;19953;-58
2022/08/06 04:34:34;;;;;;;;;;;15.80;70.40;;;;;;5073318;28;19912;-59
2022/08/06 04:37:00;;;;;;;;;;;15.80;70.50;;;;;;5074227;28;19924;-58
2022/08/06 04:39:26;;;;;;;;;;;15.80;70.50;;;;;;5073270;28;19920;-58
2022/08/06 04:41:52;;;;;;;;;;;15.70;70.30;;;;;;5073944;28;19955;-59
2022/08/06 04:44:18;;;;;;;;;;;15.70;70.40;;;;;;5055478;28;20503;-58
2022/08/06 04:46:48;;;;;;;;;;;15.70;70.40;;;;;;5073573;28;20003;-57
2022/08/06 04:49:17;;;;;;;;;;;15.70;70.30;;;;;;5073381;28;19916;-58
2022/08/06 04:51:51;;;;;;;;;;;15.60;70.30;;;;;;5073917;28;19957;-57
2022/08/06 04:54:16;;;;;;;;;;;15.70;70.40;;;;;;5073227;28;20020;-58
2022/08/06 04:56:43;;;;;;;;;;;15.70;70.40;;;;;;5073506;28;20003;-59
2022/08/06 04:59:09;;;;;;;;;;;15.70;70.10;;;;;;5073980;28;19943;-59
2022/08/06 05:01:35;;;;;;;;;;;15.70;70.40;;;;;;5072894;28;19908;-59
2022/08/06 05:04:01;;;;;;;;;;;15.60;70.20;;;;;;5073727;28;19909;-57
2022/08/06 05:06:45;;;;;;;;;;;15.70;70.20;;;;;;5073491;28;19913;-58
2022/08/06 05:09:13;;;;;;;;;;;15.70;70.20;;;;;;5067282;28;19983;-57
2022/08/06 05:11:45;;;;;;;;;;;15.70;70.30;;;;;;5072941;28;19954;-60
2022/08/06 05:14:15;;;;;;;;;;;15.70;70.20;;;;;;5072962;28;19923;-58
2022/08/06 05:16:43;;;;;;;;;;;15.80;70.30;;;;;;5072782;28;20349;-58
2022/08/06 05:19:11;;;;;;;;;;;15.80;70.30;;;;;;5055836;28;19916;-57
2022/08/06 05:21:37;;;;;;;;;;;15.80;70.20;;;;;;5072925;28;19965;-56
2022/08/06 05:24:03;;;;;;;;;;;15.80;70.30;;;;;;5054772;28;20400;-58
2022/08/06 05:26:28;;;;;;;;;;;15.80;70.30;;;;;;5073222;28;19912;-58
2022/08/06 05:28:54;;;;;;;;;;;15.80;70.30;;;;;;5073111;28;20337;-59
2022/08/06 05:31:34;;;;;;;;;;;15.80;70.40;;;;;;5072212;28;20323;-58
2022/08/06 05:34:01;;;;;;;;;;;15.80;70.30;;;;;;5072755;28;19924;-59
2022/08/06 05:36:26;;;;;;;;;;;15.90;70.40;;;;;;5072872;28;19967;-58
2022/08/06 05:38:52;;;;;;;;;;;15.80;70.30;;;;;;5072502;28;20540;-59
2022/08/06 05:41:17;;;;;;;;;;;15.80;70.60;;;;;;5072499;28;19913;-58
2022/08/06 05:43:43;;;;;;;;;;;15.80;70.40;;;;;;5072777;28;19908;-56
2022/08/06 05:46:10;;;;;;;;;;;15.80;70.40;;;;;;5072128;28;19959;-58
2022/08/06 05:48:39;;;;;;;;;;;15.80;70.50;;;;;;5072196;28;20300;-59
2022/08/06 05:51:26;;;;;;;;;;;15.90;70.70;;;;;;5071914;28;20315;-58
2022/08/06 05:53:57;;;;;;;;;;;15.90;70.50;;;;;;5072400;28;19908;-57
2022/08/06 05:56:28;;;;;;;;;;;15.80;70.50;;;;;;5072103;28;20442;-58
2022/08/06 05:58:55;;;;;;;;;;;15.80;70.90;;;;;;5071994;28;20319;-58
2022/08/06 06:01:21;;;;;;;;;;;15.80;70.80;;;;;;5071889;28;19916;-59
2022/08/06 06:03:47;;;;;;;;;;;15.70;70.80;;;;;;5072301;28;19912;-59
2022/08/06 06:06:12;;;;;;;;;;;15.80;71.20;;;;;;5072227;28;20431;-58
2022/08/06 06:08:38;;;;;;;;;;;15.80;70.90;;;;;;5072076;28;20399;-58
2022/08/06 06:11:04;;;;;;;;;;;15.80;71.20;;;;;;5071966;28;19955;-59
2022/08/06 06:13:30;;;;;;;;;;;15.90;71.00;;;;;;5072021;28;19912;-58
2022/08/06 06:16:28;;;;;;;;;;;15.90;71.20;;;;;;5071419;28;19912;-59
2022/08/06 06:19:01;;;;;;;;;;;15.90;71.10;;;;;;5029275;28;19959;-58
2022/08/06 06:21:32;;;;;;;;;;;15.90;70.60;;;;;;5029770;28;19932;-58
2022/08/06 06:24:06;;;;;;;;;;;15.80;71.10;;;;;;5029276;28;19952;-59
2022/08/06 06:26:50;;;;;;;;;;;15.90;71.20;;;;;;5029433;28;19951;-58
2022/08/06 06:29:15;;;;;;;;;;;16.00;70.60;;;;;;5029146;28;19920;-57
2022/08/06 06:32:00;;;;;;;;;;;16.00;70.70;;;;;;5029474;28;19909;-58
2022/08/06 06:34:34;;;;;;;;;;;16.00;71.10;;;;;;5029031;28;20359;-59
2022/08/06 06:37:18;;;;;;;;;;;16.10;70.80;;;;;;5029386;28;19919;-58
2022/08/06 06:39:58;;;;;;;;;;;16.20;70.70;;;;;;5029791;28;19960;-58
2022/08/06 06:42:27;;;;;;;;;;;16.20;70.10;;;;;;5028998;28;19913;-59
2022/08/06 06:45:00;;;;;;;;;;;16.20;70.20;;;;;;5028486;28;20408;-57
2022/08/06 06:47:44;;;;;;;;;;;16.20;69.90;;;;;;5029303;28;20401;-58
2022/08/06 06:50:13;;;;;;;;;;;16.20;70.10;;;;;;5029676;28;20370;-58
2022/08/06 06:52:39;;;;;;;;;;;16.30;70.30;;;;;;5028851;28;19917;-57
2022/08/06 06:55:32;;;;;;;;;;;16.40;70.40;;;;;;5057965;28;19955;-57
2022/08/06 06:58:15;;;;;;;;;;;16.40;69.60;;;;;;5063361;28;19915;-58
2022/08/06 07:00:41;;;;;;;;;;;16.40;70.40;;;;;;5069146;28;19913;-58
2022/08/06 07:03:08;;;;;;;;;;;16.50;70.30;;;;;;5071328;28;19913;-58
2022/08/06 07:05:36;;;;;;;;;;;16.60;70.10;;;;;;5065011;28;20385;-59
2022/08/06 07:08:02;;;;;;;;;;;16.70;69.80;;;;;;5070556;28;19916;-59
2022/08/06 07:10:28;;;;;;;;;;;16.80;69.60;;;;;;5066227;28;20447;-59
2022/08/06 07:12:55;;;;;;;;;;;16.90;69.40;;;;;;5070636;28;20388;-59
2022/08/06 07:15:22;;;;;;;;;;;16.90;69.20;;;;;;5052965;28;19930;-59
2022/08/06 07:17:49;;;;;;;;;;;17.00;68.80;;;;;;5058847;28;21336;-59
2022/08/06 07:20:17;;;;;;;;;;;17.10;68.60;;;;;;5068930;28;20011;-58
2022/08/06 07:22:44;;;;;;;;;;;17.00;68.60;;;;;;5068459;28;19916;-59
2022/08/06 07:25:12;;;;;;;;;;;17.10;68.70;;;;;;5067570;28;19912;-58
2022/08/06 07:27:43;;;;;;;;;;;17.20;68.10;;;;;;5067659;28;19928;-59
2022/08/06 07:30:13;;;;;;;;;;;17.20;68.40;;;;;;5067513;28;19990;-59
2022/08/06 07:32:39;;;;;;;;;;;17.20;66.70;;;;;;5068628;28;19912;-59
2022/08/06 07:35:06;;;;;;;;;;;17.30;66.50;;;;;;5069154;28;19924;-59
2022/08/06 07:37:32;;;;;;;;;;;17.30;66.50;;;;;;5068580;28;20365;-60
2022/08/06 07:39:59;;;;;;;;;;;17.30;66.40;;;;;;5068759;28;19920;-59
2022/08/06 07:42:26;;;;;;;;;;;17.40;66.10;;;;;;5066360;28;19916;-60
2022/08/06 07:44:53;;;;;;;;;;;17.40;66.30;;;;;;5068664;28;19912;-59
2022/08/06 07:47:22;;;;;;;;;;;17.50;65.40;;;;;;5068584;28;19924;-56
2022/08/06 07:49:53;;;;;;;;;;;17.50;64.70;;;;;;5068274;28;19917;-59
2022/08/06 07:52:19;;;;;;;;;;;17.50;64.80;;;;;;5068605;28;19912;-59
2022/08/06 07:54:45;;;;;;;;;;;17.50;64.00;;;;;;5069177;28;19932;-59
2022/08/06 07:57:11;;;;;;;;;;;17.60;64.00;;;;;;5068420;28;19919;-57
2022/08/06 07:59:38;;;;;;;;;;;17.60;64.70;;;;;;5068334;28;19920;-59
2022/08/06 08:02:04;;;;;;;;;;;17.70;64.60;;;;;;5068737;28;19995;-57
2022/08/06 08:07:15;;;;;;;;;;;17.80;64.40;;;;;;5067531;28;19954;-59
2022/08/06 08:09:42;;;;;;;;;;;17.80;63.80;;;;;;5067982;28;19920;-59
2022/08/06 08:12:11;;;;;;;;;;;17.90;63.90;;;;;;5068237;28;19913;-59
2022/08/06 08:14:37;;;;;;;;;;;17.90;64.00;;;;;;5068674;28;19942;-61
2022/08/06 08:17:03;;;;;;;;;;;18.00;63.30;;;;;;5072439;28;19970;-59
2022/08/06 08:19:32;;;;;;;;;;;18.00;63.50;;;;;;5071768;28;20401;-58
2022/08/06 08:21:58;;;;;;;;;;;18.00;63.50;;;;;;5071999;28;20495;-59
2022/08/06 08:24:25;;;;;;;;;;;18.10;63.70;;;;;;5087261;28;19913;-58
2022/08/06 08:26:50;;;;;;;;;;;18.20;63.80;;;;;;5070622;28;20002;-60
2022/08/06 08:29:16;;;;;;;;;;;18.30;63.80;;;;;;5070821;28;19912;-58
2022/08/06 08:31:41;;;;;;;;;;;18.30;62.90;;;;;;5070963;28;20335;-59
2022/08/06 08:34:07;;;;;;;;;;;18.30;63.20;;;;;;5071274;28;19919;-57
2022/08/06 08:36:33;;;;;;;;;;;18.40;63.40;;;;;;5071336;28;19917;-58
2022/08/06 08:38:58;;;;;;;;;;;18.40;63.50;;;;;;5068035;28;19931;-57
2022/08/06 08:41:34;;;;;;;;;;;18.50;62.30;;;;;;5071040;28;19958;-57
2022/08/06 08:44:01;;;;;;;;;;;18.50;62.50;;;;;;5071062;28;20427;-58
2022/08/06 08:46:27;;;;;;;;;;;18.50;62.70;;;;;;5067998;28;19912;-59
2022/08/06 08:48:54;;;;;;;;;;;18.60;63.00;;;;;;5071107;28;19920;-59
2022/08/06 08:51:21;;;;;;;;;;;18.70;62.00;;;;;;5071148;28;20821;-58
2022/08/06 08:53:54;;;;;;;;;;;18.70;61.00;;;;;;5070354;28;19923;-57
2022/08/06 08:56:19;;;;;;;;;;;18.70;60.70;;;;;;5071232;28;19917;-57
2022/08/06 08:58:45;;;;;;;;;;;18.80;60.40;;;;;;5070561;28;19924;-59
2022/08/06 09:01:11;;;;;;;;;;;18.90;60.20;;;;;;5071266;28;19924;-57
2022/08/06 09:03:38;;;;;;;;;;;18.90;60.60;;;;;;5086204;28;19916;-58
2022/08/06 09:06:04;;;;;;;;;;;18.90;59.90;;;;;;5086512;28;19951;-57
2022/08/06 09:08:30;;;;;;;;;;;19.00;59.10;;;;;;5070832;28;19928;-59
2022/08/06 09:10:56;;;;;;;;;;;19.00;58.50;;;;;;5070082;28;20356;-58
2022/08/06 09:13:23;;;;;;;;;;;19.00;59.00;;;;;;5070611;28;20425;-58
2022/08/06 09:15:48;;;;;;;;;;;19.10;57.70;;;;;;5071183;28;19912;-58
2022/08/06 09:18:14;;;;;;;;;;;19.10;58.10;;;;;;5070604;28;19970;-56
2022/08/06 09:20:40;;;;;;;;;;;19.10;57.10;;;;;;5070291;28;19916;-57
2022/08/06 09:23:05;;;;;;;;;;;19.10;56.80;;;;;;5070005;28;20135;-55
2022/08/06 09:25:34;;;;;;;;;;;19.20;57.10;;;;;;5070163;28;20323;-58
2022/08/06 09:28:00;;;;;;;;;;;19.30;57.50;;;;;;5070332;28;19920;-58
2022/08/06 09:30:26;;;;;;;;;;;19.30;56.90;;;;;;5071158;28;20264;-57
2022/08/06 09:32:54;;;;;;;;;;;19.30;56.60;;;;;;5070476;28;19919;-58
2022/08/06 09:35:22;;;;;;;;;;;19.30;57.10;;;;;;5070407;28;19919;-59
2022/08/06 09:37:58;;;;;;;;;;;19.40;57.10;;;;;;5069667;28;20506;-58
2022/08/06 09:40:24;;;;;;;;;;;19.50;55.50;;;;;;5086689;28;19917;-59
2022/08/06 09:42:50;;;;;;;;;;;19.50;56.50;;;;;;5070106;28;19923;-59
2022/08/06 09:45:18;;;;;;;;;;;19.60;56.00;;;;;;5070670;28;19920;-59
2022/08/06 09:47:47;;;;;;;;;;;19.60;56.20;;;;;;5069883;28;19917;-58
2022/08/06 09:50:34;;;;;;;;;;;19.70;56.30;;;;;;5067659;28;21539;-58
2022/08/06 09:53:02;;;;;;;;;;;19.70;55.60;;;;;;5069375;28;19931;-58
2022/08/06 09:55:29;;;;;;;;;;;19.80;55.10;;;;;;5067194;28;20301;-56
2022/08/06 09:57:54;;;;;;;;;;;19.80;54.10;;;;;;5070091;28;19916;-57
2022/08/06 10:00:27;;;;;;;;;;;19.80;54.20;;;;;;5070617;28;20381;-56
2022/08/06 10:03:00;;;;;;;;;;;19.80;53.90;;;;;;5069388;28;19917;-58
2022/08/06 10:05:26;;;;;;;;;;;19.80;53.80;;;;;;5070045;28;20039;-58
2022/08/06 10:08:21;;;;;;;;;;;19.90;53.60;;;;;;5069000;28;19977;-57
2022/08/06 10:10:48;;;;;;;;;;;19.90;54.50;;;;;;5050677;28;19938;-56
2022/08/06 10:13:23;;;;;;;;;;;20.00;54.30;;;;;;5070038;28;19912;-57
2022/08/06 10:15:49;;;;;;;;;;;20.00;52.70;;;;;;5069537;28;20030;-56
2022/08/06 10:18:34;;;;;;;;;;;20.10;51.90;;;;;;5069479;28;20029;-59
2022/08/06 10:21:04;;;;;;;;;;;20.00;52.50;;;;;;5069010;28;20519;-58
2022/08/06 10:23:34;;;;;;;;;;;20.10;53.40;;;;;;5066537;28;19916;-58
2022/08/06 10:26:04;;;;;;;;;;;20.20;53.60;;;;;;5069344;28;19916;-57
2022/08/06 10:28:31;;;;;;;;;;;20.20;53.30;;;;;;5066279;28;19920;-57
2022/08/06 10:30:57;;;;;;;;;;;20.20;52.10;;;;;;5068606;28;19923;-57
2022/08/06 10:33:25;;;;;;;;;;;20.30;51.80;;;;;;5068719;28;20010;-56
2022/08/06 10:35:57;;;;;;;;;;;20.30;52.10;;;;;;5068760;28;19920;-58
2022/08/06 10:38:25;;;;;;;;;;;20.30;51.80;;;;;;5051369;28;20009;-58
2022/08/06 10:40:51;;;;;;;;;;;20.30;51.80;;;;;;5068869;28;19921;-58
2022/08/06 10:43:17;;;;;;;;;;;20.30;51.80;;;;;;5069157;28;19935;-58
2022/08/06 10:45:42;;;;;;;;;;;20.30;51.60;;;;;;5051088;28;20364;-58
2022/08/06 10:48:09;;;;;;;;;;;20.40;51.40;;;;;;5068951;28;19946;-58
2022/08/06 10:50:34;;;;;;;;;;;20.50;51.20;;;;;;5068674;28;19995;-57
2022/08/06 10:53:00;;;;;;;;;;;20.50;50.70;;;;;;5068598;28;20413;-57
2022/08/06 10:55:29;;;;;;;;;;;20.40;51.00;;;;;;5069011;28;19923;-58
2022/08/06 10:57:55;;;;;;;;;;;20.50;50.80;;;;;;5069049;28;20436;-56
2022/08/06 11:00:20;;;;;;;;;;;20.50;50.70;;;;;;5069159;28;20011;-57
2022/08/06 11:02:52;;;;;;;;;;;20.50;51.70;;;;;;5050329;28;19987;-58
2022/08/06 11:05:20;;;;;;;;;;;20.60;51.60;;;;;;5068974;28;19951;-55
2022/08/06 11:07:51;;;;;;;;;;;20.70;51.90;;;;;;5068977;28;19928;-58
2022/08/06 11:10:36;;;;;;;;;;;20.70;51.30;;;;;;5068826;28;20011;-58
2022/08/06 11:13:07;;;;;;;;;;;20.70;51.30;;;;;;5068737;28;19923;-58
2022/08/06 11:15:34;;;;;;;;;;;20.80;51.60;;;;;;5068840;28;19913;-57
2022/08/06 11:18:07;;;;;;;;;;;20.80;50.30;;;;;;5068607;28;20391;-57
2022/08/06 11:20:32;;;;;;;;;;;20.80;50.90;;;;;;5064897;28;20364;-58
2022/08/06 11:22:59;;;;;;;;;;;20.80;51.00;;;;;;5068913;28;19917;-55
2022/08/06 11:25:38;;;;;;;;;;;20.90;50.70;;;;;;5068066;28;20278;-58
2022/08/06 11:28:04;;;;;;;;;;;20.90;50.70;;;;;;5065876;28;20372;-57
2022/08/06 11:30:38;;;;;;;;;;;20.90;50.90;;;;;;5067844;28;19920;-57
2022/08/06 11:33:03;;;;;;;;;;;21.00;51.20;;;;;;5067120;28;19920;-55
2022/08/06 11:35:35;;;;;;;;;;;21.00;51.00;;;;;;5068496;28;19912;-56
2022/08/06 11:38:01;;;;;;;;;;;21.00;50.20;;;;;;5067971;28;20398;-58
2022/08/06 11:40:27;;;;;;;;;;;21.00;50.50;;;;;;5068717;28;19920;-53
2022/08/06 11:42:52;;;;;;;;;;;21.10;50.70;;;;;;5068378;28;19923;-56
2022/08/06 11:45:18;;;;;;;;;;;21.10;49.70;;;;;;5068271;28;19912;-57
2022/08/06 11:48:02;;;;;;;;;;;21.10;50.30;;;;;;5067828;28;20377;-56
2022/08/06 11:50:28;;;;;;;;;;;21.10;50.30;;;;;;5067837;28;19920;-57
2022/08/06 11:52:54;;;;;;;;;;;21.10;49.50;;;;;;5072241;28;20479;-56
2022/08/06 11:55:20;;;;;;;;;;;21.20;49.60;;;;;;5072402;28;19916;-58
2022/08/06 11:57:45;;;;;;;;;;;21.20;49.10;;;;;;5072358;28;19971;-56
2022/08/06 12:00:13;;;;;;;;;;;21.30;49.60;;;;;;5072242;28;20003;-57
2022/08/06 12:02:39;;;;;;;;;;;21.20;49.70;;;;;;5071673;28;19950;-57
2022/08/06 12:05:05;;;;;;;;;;;21.30;50.00;;;;;;5071698;28;19955;-55
2022/08/06 12:07:33;;;;;;;;;;;21.30;48.90;;;;;;5071550;28;19920;-55
2022/08/06 12:10:09;;;;;;;;;;;21.40;49.00;;;;;;5072290;28;19948;-58
2022/08/06 12:12:48;;;;;;;;;;;21.40;48.90;;;;;;5069038;28;19920;-58
2022/08/06 12:15:14;;;;;;;;;;;21.50;49.20;;;;;;5072214;28;20242;-57
2022/08/06 12:17:41;;;;;;;;;;;21.50;48.20;;;;;;5071715;28;20015;-53
2022/08/06 12:20:07;;;;;;;;;;;21.50;49.20;;;;;;5072407;28;19970;-57
2022/08/06 12:22:33;;;;;;;;;;;21.60;49.40;;;;;;5072333;28;19917;-57
2022/08/06 12:25:00;;;;;;;;;;;21.60;49.60;;;;;;5071882;28;19921;-57
2022/08/06 12:27:35;;;;;;;;;;;21.70;49.20;;;;;;5071962;28;19920;-58
2022/08/06 12:30:02;;;;;;;;;;;21.70;48.90;;;;;;5070876;28;19916;-57
2022/08/06 12:32:28;;;;;;;;;;;21.70;48.70;;;;;;5069705;28;19919;-58
2022/08/06 12:34:57;;;;;;;;;;;21.70;48.80;;;;;;5072413;28;19936;-58
2022/08/06 12:37:32;;;;;;;;;;;21.60;49.20;;;;;;5072104;28;19933;-56
2022/08/06 12:42:42;;;;;;;;;;;21.70;49.00;;;;;;5069862;28;19919;-56
2022/08/06 12:45:10;;;;;;;;;;;21.70;48.80;;;;;;5071746;28;19912;-55
2022/08/06 12:47:36;;;;;;;;;;;21.80;49.00;;;;;;5070990;28;19921;-56
2022/08/06 12:50:15;;;;;;;;;;;21.80;49.30;;;;;;5071475;28;19916;-57
2022/08/06 12:52:40;;;;;;;;;;;21.90;48.90;;;;;;5069825;28;19962;-57
2022/08/06 12:55:16;;;;;;;;;;;21.90;49.20;;;;;;5071472;28;19912;-55
2022/08/06 12:57:41;;;;;;;;;;;21.90;49.20;;;;;;5071399;28;19919;-54
2022/08/06 13:00:08;;;;;;;;;;;22.00;49.40;;;;;;5070914;28;20007;-54
2022/08/06 13:02:34;;;;;;;;;;;22.00;49.10;;;;;;5071758;28;19915;-57
2022/08/06 13:04:59;;;;;;;;;;;22.00;48.60;;;;;;5071571;28;19917;-55
2022/08/06 13:07:25;;;;;;;;;;;22.10;48.70;;;;;;5071517;28;19923;-52
2022/08/06 13:09:51;;;;;;;;;;;22.20;48.90;;;;;;5071400;28;20015;-57
2022/08/06 13:12:18;;;;;;;;;;;22.20;48.40;;;;;;5067660;28;19913;-55
2022/08/06 13:14:57;;;;;;;;;;;22.20;48.10;;;;;;5070804;28;19919;-57
2022/08/06 13:17:23;;;;;;;;;;;22.20;48.20;;;;;;5070663;28;20310;-55
2022/08/06 13:19:52;;;;;;;;;;;22.30;47.30;;;;;;5071029;28;19913;-55
2022/08/06 13:22:18;;;;;;;;;;;22.30;47.10;;;;;;5071867;28;19959;-57
2022/08/06 13:24:43;;;;;;;;;;;22.30;47.70;;;;;;5070875;28;19963;-56
2022/08/06 13:27:09;;;;;;;;;;;22.30;47.60;;;;;;5070594;28;20281;-56
2022/08/06 13:29:34;;;;;;;;;;;22.30;47.30;;;;;;5044262;28;19913;-55
2022/08/06 13:32:00;;;;;;;;;;;22.30;47.60;;;;;;5070141;28;20003;-56
2022/08/06 13:34:26;;;;;;;;;;;22.30;47.50;;;;;;5070964;28;19916;-56
2022/08/06 13:36:53;;;;;;;;;;;22.30;47.60;;;;;;5069737;28;19927;-57
2022/08/06 13:39:19;;;;;;;;;;;22.40;47.60;;;;;;5070545;28;19921;-56
2022/08/06 13:41:45;;;;;;;;;;;22.40;47.50;;;;;;5070819;28;20007;-57
2022/08/06 13:44:29;;;;;;;;;;;22.40;46.80;;;;;;5071036;28;20004;-56
2022/08/06 13:46:54;;;;;;;;;;;22.40;47.00;;;;;;5070609;28;19923;-57
2022/08/06 13:49:20;;;;;;;;;;;22.40;46.30;;;;;;5070415;28;19916;-55
2022/08/06 13:51:45;;;;;;;;;;;22.50;46.30;;;;;;5070265;28;19923;-56
2022/08/06 13:54:11;;;;;;;;;;;22.40;46.60;;;;;;5070306;28;19944;-55
2022/08/06 13:56:36;;;;;;;;;;;22.40;46.90;;;;;;5071019;28;19912;-57
2022/08/06 13:59:02;;;;;;;;;;;22.50;46.40;;;;;;5069905;28;19912;-56
2022/08/06 14:01:27;;;;;;;;;;;22.60;46.20;;;;;;5070394;28;19912;-57
2022/08/06 14:03:53;;;;;;;;;;;22.50;46.30;;;;;;5070419;28;19916;-56
2022/08/06 14:06:18;;;;;;;;;;;22.50;46.00;;;;;;5069705;28;19916;-54
2022/08/06 14:08:44;;;;;;;;;;;22.50;45.80;;;;;;5070111;28;19920;-56
2022/08/06 14:11:09;;;;;;;;;;;22.50;45.50;;;;;;5070227;28;19935;-56
2022/08/06 14:13:35;;;;;;;;;;;22.50;45.80;;;;;;5068816;28;19920;-57
2022/08/06 14:16:00;;;;;;;;;;;22.50;45.80;;;;;;5069744;28;20053;-56
2022/08/06 14:18:26;;;;;;;;;;;22.50;46.60;;;;;;5070004;28;20434;-55
2022/08/06 14:20:52;;;;;;;;;;;22.60;47.00;;;;;;5069834;28;19920;-57
2022/08/06 14:23:18;;;;;;;;;;;22.80;46.90;;;;;;5069375;28;19931;-53
2022/08/06 14:25:44;;;;;;;;;;;22.90;46.80;;;;;;5069851;28;19917;-57
2022/08/06 14:28:09;;;;;;;;;;;22.80;46.30;;;;;;5069178;28;20351;-53